createdAt,value
2022-10-21T00:01:06.897Z,100639.88
2022-10-21T00:03:37.096Z,100632.53
2022-10-21T00:06:06.319Z,100634.91
2022-10-21T00:08:34.456Z,100631.22
2022-10-21T00:11:04.542Z,100623.75
2022-10-21T00:13:34.071Z,100619.38
2022-10-21T00:16:04.951Z,100621.72
2022-10-21T00:18:34.048Z,100622.84
2022-10-21T00:21:06.965Z,100617.44
2022-10-21T00:23:35.203Z,100610.91
2022-10-21T00:26:03.711Z,100606.13
2022-10-21T00:28:32.386Z,100596.94
2022-10-21T00:31:00.297Z,100593.75
2022-10-21T00:33:29.350Z,100593.13
2022-10-21T00:35:59.207Z,100594.19
2022-10-21T00:38:28.822Z,100581.03
2022-10-21T00:40:56.732Z,100582.72
2022-10-21T00:43:25.380Z,100577.22
2022-10-21T00:45:56.969Z,100570.06
2022-10-21T00:48:31.697Z,100572.72
2022-10-21T00:51:04.982Z,100575.38
2022-10-21T00:53:37.576Z,100573.84
2022-10-21T00:56:15.438Z,100568.69
2022-10-21T00:58:47.034Z,100565.69
2022-10-21T01:01:19.111Z,100564.66
2022-10-21T01:03:49.790Z,100566.81
2022-10-21T01:06:20.086Z,100569.97
2022-10-21T01:08:49.706Z,100573.84
2022-10-21T01:11:20.599Z,100557.09
2022-10-21T01:14:04.524Z,100544.53
2022-10-21T01:16:44.379Z,100529.50
2022-10-21T01:19:41.053Z,100538.22
2022-10-21T01:22:23.840Z,100545.22
2022-10-21T01:25:19.194Z,100526.91
2022-10-21T01:27:56.243Z,100542.53
2022-10-21T01:30:38.274Z,100544.13
2022-10-21T01:33:50.954Z,100531.97
2022-10-21T01:36:29.965Z,100531.19
2022-10-21T01:39:08.871Z,100527.25
2022-10-21T01:41:42.591Z,100516.63
2022-10-21T01:44:22.083Z,100501.63
2022-10-21T01:46:57.889Z,100502.53
2022-10-21T01:49:32.737Z,100500.50
2022-10-21T01:52:01.939Z,100480.75
2022-10-21T01:54:34.524Z,100479.22
2022-10-21T01:57:04.376Z,100481.88
2022-10-21T01:59:33.939Z,100477.09
2022-10-21T02:02:08.060Z,100473.81
2022-10-21T02:04:39.315Z,100475.16
2022-10-21T02:07:07.475Z,100477.94
2022-10-21T02:09:35.501Z,100479.22
2022-10-21T02:12:06.179Z,100473.81
2022-10-21T02:14:37.426Z,100474.84
2022-10-21T02:17:08.966Z,100464.56
2022-10-21T02:19:36.842Z,100465.72
2022-10-21T02:22:09.029Z,100462.19
2022-10-21T02:24:41.456Z,100456.38
2022-10-21T02:27:09.696Z,100451.06
2022-10-21T02:29:41.276Z,100450.06
2022-10-21T02:32:24.050Z,100441.38
2022-10-21T02:35:03.216Z,100434.38
2022-10-21T02:40:13.052Z,100433.06
2022-10-21T02:42:55.322Z,100434.59
2022-10-21T02:45:24.069Z,100420.66
2022-10-21T02:47:53.575Z,100440.63
2022-10-21T02:50:21.995Z,100440.31
2022-10-21T02:52:50.143Z,100447.69
2022-10-21T02:55:18.246Z,100445.13
2022-10-21T02:57:46.219Z,100443.41
2022-10-21T03:00:15.620Z,100443.13
2022-10-21T03:02:43.643Z,100433.66
2022-10-21T03:05:14.234Z,100444.47
2022-10-21T03:07:42.197Z,100440.41
2022-10-21T03:10:10.579Z,100444.03
2022-10-21T03:12:38.554Z,100432.97
2022-10-21T03:15:07.364Z,100423.34
2022-10-21T03:17:35.667Z,100426.53
2022-10-21T03:20:04.514Z,100423.66
2022-10-21T03:22:34.261Z,100421.75
2022-10-21T03:25:02.240Z,100412.63
2022-10-21T03:29:59.776Z,100409.13
2022-10-21T03:32:27.777Z,100403.19
2022-10-21T03:34:55.649Z,100411.09
2022-10-21T03:37:23.560Z,100406.25
2022-10-21T03:39:53.026Z,100407.41
2022-10-21T03:42:20.888Z,100408.94
2022-10-21T03:44:48.953Z,100402.41
2022-10-21T03:47:19.593Z,100413.81
2022-10-21T03:49:48.214Z,100415.47
2022-10-21T03:52:16.141Z,100410.66
2022-10-21T03:54:44.084Z,100415.59
2022-10-21T03:57:13.557Z,100407.88
2022-10-21T03:59:41.503Z,100404.53
2022-10-21T04:02:09.377Z,100400.19
2022-10-21T04:04:37.317Z,100388.41
2022-10-21T04:07:05.284Z,100379.59
2022-10-21T04:09:33.591Z,100384.53
2022-10-21T04:12:01.480Z,100388.31
2022-10-21T04:14:30.952Z,100381.41
2022-10-21T04:17:06.850Z,100371.75
2022-10-21T04:19:34.975Z,100374.59
2022-10-21T04:22:03.189Z,100373.25
2022-10-21T04:24:31.226Z,100375.50
2022-10-21T04:26:59.356Z,100363.78
2022-10-21T04:29:27.400Z,100360.78
2022-10-21T04:31:56.868Z,100363.25
2022-10-21T04:34:24.875Z,100358.38
2022-10-21T04:36:52.774Z,100364.63
2022-10-21T04:39:20.780Z,100363.25
2022-10-21T04:41:50.654Z,100349.44
2022-10-21T04:44:18.657Z,100349.44
2022-10-21T04:46:46.577Z,100358.47
2022-10-21T04:49:15.974Z,100366.09
2022-10-21T04:51:43.991Z,100360.56
2022-10-21T04:54:13.473Z,100356.06
2022-10-21T04:56:41.444Z,100353.72
2022-10-21T04:59:09.565Z,100363.38
2022-10-21T05:01:38.182Z,100357.56
2022-10-21T05:04:06.145Z,100351.13
2022-10-21T05:06:35.512Z,100349.09
2022-10-21T05:09:03.779Z,100341.22
2022-10-21T05:11:31.938Z,100336.16
2022-10-21T05:13:59.898Z,100323.69
2022-10-21T05:16:27.940Z,100324.94
2022-10-21T05:18:55.882Z,100330.25
2022-10-21T05:21:23.907Z,100320.13
2022-10-21T05:23:53.534Z,100319.63
2022-10-21T05:26:21.484Z,100328.16
2022-10-21T05:28:49.500Z,100320.88
2022-10-21T05:31:17.835Z,100322.47
2022-10-21T05:33:47.297Z,100313.38
2022-10-21T05:36:15.854Z,100304.69
2022-10-21T05:38:45.026Z,100307.44
2022-10-21T05:41:14.493Z,100312.13
2022-10-21T05:43:42.468Z,100302.66
2022-10-21T05:46:10.748Z,100304.84
2022-10-21T05:48:39.201Z,100314.56
2022-10-21T05:51:08.464Z,100311.38
2022-10-21T05:53:36.472Z,100316.25
2022-10-21T05:56:06.635Z,100318.81
2022-10-21T05:58:36.872Z,100328.06
2022-10-21T06:01:05.169Z,100335.84
2022-10-21T06:03:35.036Z,100334.81
2022-10-21T06:06:05.447Z,100329.53
2022-10-21T06:08:39.113Z,100331.06
2022-10-21T06:11:09.717Z,100323.66
2022-10-21T06:13:39.695Z,100332.38
2022-10-21T06:16:09.351Z,100333.59
2022-10-21T06:18:38.122Z,100339.53
2022-10-21T06:21:06.598Z,100332.53
2022-10-21T06:23:38.175Z,100335.31
2022-10-21T06:26:08.149Z,100335.56
2022-10-21T06:28:40.864Z,100345.75
2022-10-21T06:31:10.716Z,100341.59
2022-10-21T06:33:38.827Z,100347.41
2022-10-21T06:36:07.431Z,100350.09
2022-10-21T06:38:37.030Z,100355.34
2022-10-21T06:41:10.519Z,100354.50
2022-10-21T06:43:42.960Z,100346.91
2022-10-21T06:46:12.540Z,100349.25
2022-10-21T06:48:40.901Z,100342.75
2022-10-21T06:51:10.795Z,100360.97
2022-10-21T06:53:39.554Z,100356.59
2022-10-21T06:56:10.129Z,100357.84
2022-10-21T06:58:39.731Z,100364.94
2022-10-21T07:01:21.341Z,100372.63
2022-10-21T07:03:58.596Z,100382.38
2022-10-21T07:06:26.633Z,100391.09
2022-10-21T07:08:58.346Z,100381.00
2022-10-21T07:11:26.818Z,100391.09
2022-10-21T07:13:54.931Z,100382.28
2022-10-21T07:16:26.569Z,100384.38
2022-10-21T07:18:55.191Z,100377.44
2022-10-21T07:21:25.786Z,100376.53
2022-10-21T07:23:56.722Z,100380.50
2022-10-21T07:26:28.255Z,100379.38
2022-10-21T07:28:58.466Z,100373.84
2022-10-21T07:31:29.186Z,100371.50
2022-10-21T07:33:57.156Z,100368.81
2022-10-21T07:36:27.640Z,100371.34
2022-10-21T07:38:58.291Z,100368.47
2022-10-21T07:41:28.349Z,100356.78
2022-10-21T07:43:56.434Z,100367.31
2022-10-21T07:46:24.866Z,100375.75
2022-10-21T07:48:54.616Z,100389.00
2022-10-21T07:51:28.390Z,100374.06
2022-10-21T07:53:58.104Z,100375.69
2022-10-21T07:56:28.107Z,100368.53
2022-10-21T07:58:56.350Z,100365.63
2022-10-21T08:01:24.864Z,100367.09
2022-10-21T08:03:55.576Z,100353.59
2022-10-21T08:06:25.433Z,100359.91
2022-10-21T08:08:53.681Z,100360.41
2022-10-21T08:11:22.751Z,100357.22
2022-10-21T08:13:50.627Z,100357.28
2022-10-21T08:16:18.708Z,100356.94
2022-10-21T08:18:46.670Z,100345.00
2022-10-21T08:21:16.676Z,100352.56
2022-10-21T08:23:44.901Z,100354.25
2022-10-21T08:26:14.440Z,100361.16
2022-10-21T08:28:42.610Z,100347.38
2022-10-21T08:31:12.538Z,100343.34
2022-10-21T08:33:40.754Z,100344.97
2022-10-21T08:36:10.346Z,100354.38
2022-10-21T08:38:39.666Z,100352.09
2022-10-21T08:41:19.803Z,100355.06
2022-10-21T08:43:47.817Z,100341.69
2022-10-21T08:46:20.937Z,100344.22
2022-10-21T08:48:54.025Z,100335.03
2022-10-21T08:51:28.237Z,100334.50
2022-10-21T08:54:02.801Z,100327.47
2022-10-21T08:56:31.781Z,100329.47
2022-10-21T08:58:59.825Z,100324.34
2022-10-21T09:01:33.966Z,100332.72
2022-10-21T09:04:12.342Z,100343.59
2022-10-21T09:06:50.890Z,100332.81
2022-10-21T09:09:27.731Z,100330.66
2022-10-21T09:12:04.297Z,100338.75
2022-10-21T09:14:56.842Z,100331.78
2022-10-21T09:17:43.048Z,100323.41
2022-10-21T09:20:22.570Z,100315.59
2022-10-21T09:23:02.660Z,100321.22
2022-10-21T09:25:36.873Z,100325.97
2022-10-21T09:28:13.193Z,100322.34
2022-10-21T09:30:42.339Z,100321.56
2022-10-21T09:33:17.312Z,100314.69
2022-10-21T09:35:49.322Z,100322.78
2022-10-21T09:38:34.284Z,100314.16
2022-10-21T09:41:06.786Z,100317.00
2022-10-21T09:43:34.672Z,100316.63
2022-10-21T09:46:02.530Z,100319.84
2022-10-21T09:48:53.970Z,100316.91
2022-10-21T09:51:30.980Z,100315.19
2022-10-21T09:54:03.752Z,100310.69
2022-10-21T09:56:40.233Z,100302.03
2022-10-21T09:59:10.055Z,100310.69
2022-10-21T10:01:39.679Z,100309.03
2022-10-21T10:04:15.119Z,100311.28
2022-10-21T10:06:45.291Z,100316.78
2022-10-21T10:09:28.016Z,100313.69
2022-10-21T10:12:01.700Z,100310.13
2022-10-21T10:14:32.576Z,100318.28
2022-10-21T10:17:21.779Z,100310.97
2022-10-21T10:20:14.185Z,100310.72
2022-10-21T10:22:44.337Z,100311.47
2022-10-21T10:25:22.855Z,100316.28
2022-10-21T10:27:55.078Z,100303.22
2022-10-21T10:30:24.609Z,100310.59
2022-10-21T10:32:54.807Z,100312.22
2022-10-21T10:35:31.617Z,100310.91
2022-10-21T10:38:02.548Z,100304.94
2022-10-21T10:40:34.207Z,100307.00
2022-10-21T10:43:08.114Z,100319.25
2022-10-21T10:45:36.428Z,100315.94
2022-10-21T10:48:06.900Z,100318.00
2022-10-21T10:50:48.867Z,100320.88
2022-10-21T10:53:38.417Z,100310.78
2022-10-21T10:56:19.745Z,100311.13
2022-10-21T10:58:55.130Z,100317.41
2022-10-21T11:01:28.157Z,100313.97
2022-10-21T11:04:02.221Z,100311.88
2022-10-21T11:06:36.980Z,100311.03
2022-10-21T11:09:08.837Z,100307.56
2022-10-21T11:11:40.085Z,100312.22
2022-10-21T11:14:17.598Z,100317.72
2022-10-21T11:17:00.859Z,100324.63
2022-10-21T11:19:35.428Z,100331.84
2022-10-21T11:22:24.659Z,100331.78
2022-10-21T11:24:57.323Z,100326.00
2022-10-21T11:27:57.870Z,100330.56
2022-10-21T11:30:34.705Z,100320.44
2022-10-21T11:33:20.229Z,100326.41
2022-10-21T11:35:59.571Z,100327.50
2022-10-21T11:38:40.645Z,100323.41
2022-10-21T11:41:22.952Z,100327.88
2022-10-21T11:44:04.357Z,100323.91
2022-10-21T11:46:44.964Z,100330.31
2022-10-21T11:49:26.819Z,100319.72
2022-10-21T11:52:02.050Z,100315.94
2022-10-21T11:55:10.380Z,100318.38
2022-10-21T11:57:47.942Z,100315.72
2022-10-21T12:00:20.739Z,100318.56
2022-10-21T12:03:19.777Z,100312.19
2022-10-21T12:05:55.277Z,100308.56
2022-10-21T12:08:28.609Z,100317.41
2022-10-21T12:11:02.008Z,100316.16
2022-10-21T12:13:36.852Z,100312.09
2022-10-21T12:16:09.803Z,100314.38
2022-10-21T12:18:52.481Z,100316.34
2022-10-21T12:21:24.480Z,100316.34
2022-10-21T12:23:57.867Z,100310.97
2022-10-21T12:26:29.656Z,100307.75
2022-10-21T12:29:02.610Z,100306.53
2022-10-21T12:31:40.881Z,100303.94
2022-10-21T12:34:12.555Z,100314.88
2022-10-21T12:36:44.283Z,100308.69
2022-10-21T12:39:18.077Z,100317.31
2022-10-21T12:41:48.756Z,100311.66
2022-10-21T12:44:35.020Z,100304.81
2022-10-21T12:47:24.163Z,100311.78
2022-10-21T12:50:19.966Z,100305.53
2022-10-21T12:53:03.703Z,100304.84
2022-10-21T12:55:39.265Z,100307.56
2022-10-21T12:58:19.307Z,100309.56
2022-10-21T13:00:56.224Z,100308.78
2022-10-21T13:03:55.356Z,100309.72
2022-10-21T13:06:53.395Z,100306.22
2022-10-21T13:09:44.629Z,100303.31
2022-10-21T13:12:31.628Z,100301.38
2022-10-21T13:15:02.591Z,100302.22
2022-10-21T13:17:53.174Z,100295.72
2022-10-21T13:20:47.198Z,100300.16
2022-10-21T13:23:44.442Z,100298.97
2022-10-21T13:26:25.539Z,100301.13
2022-10-21T13:29:02.949Z,100300.44
2022-10-21T13:31:31.319Z,100295.19
2022-10-21T13:33:59.752Z,100301.56
2022-10-21T13:36:39.162Z,100300.34
2022-10-21T13:39:23.137Z,100310.56
2022-10-21T13:41:59.850Z,100305.00
2022-10-21T13:44:31.803Z,100308.19
2022-10-21T13:47:19.315Z,100312.41
2022-10-21T13:49:52.453Z,100318.00
2022-10-21T13:52:20.520Z,100311.28
2022-10-21T13:55:00.744Z,100313.25
2022-10-21T13:57:33.846Z,100316.69
2022-10-21T14:00:04.029Z,100321.59
2022-10-21T14:02:33.049Z,100320.88
2022-10-21T14:05:02.820Z,100325.28
2022-10-21T14:07:31.087Z,100327.25
2022-10-21T14:10:01.836Z,100325.63
2022-10-21T14:12:33.875Z,100331.25
2022-10-21T14:15:06.554Z,100334.69
2022-10-21T14:17:36.610Z,100335.16
2022-10-21T14:20:09.238Z,100326.69
2022-10-21T14:22:38.906Z,100332.53
2022-10-21T14:25:16.013Z,100321.78
2022-10-21T14:27:47.215Z,100324.31
2022-10-21T14:30:20.011Z,100330.28
2022-10-21T14:32:49.329Z,100327.13
2022-10-21T14:35:28.273Z,100335.22
2022-10-21T14:38:04.895Z,100327.59
2022-10-21T14:40:37.995Z,100328.31
2022-10-21T14:43:17.652Z,100322.88
2022-10-21T14:45:48.122Z,100331.91
2022-10-21T14:48:22.303Z,100327.59
2022-10-21T14:50:55.185Z,100316.84
2022-10-21T14:53:25.480Z,100324.69
2022-10-21T14:55:58.290Z,100319.91
2022-10-21T14:58:32.130Z,100311.28
2022-10-21T15:01:02.202Z,100317.72
2022-10-21T15:03:44.773Z,100319.72
2022-10-21T15:06:15.442Z,100318.88
2022-10-21T15:08:45.447Z,100313.66
2022-10-21T15:11:31.378Z,100315.09
2022-10-21T15:14:20.749Z,100306.66
2022-10-21T15:16:52.799Z,100304.09
2022-10-21T15:19:24.308Z,100290.50
2022-10-21T15:21:56.361Z,100294.78
2022-10-21T15:24:31.598Z,100295.19
2022-10-21T15:27:02.758Z,100307.16
2022-10-21T15:29:36.725Z,100308.13
2022-10-21T15:32:06.382Z,100303.47
2022-10-21T15:34:34.420Z,100301.44
2022-10-21T15:37:02.511Z,100315.28
2022-10-21T15:39:30.724Z,100314.31
2022-10-21T15:41:59.051Z,100311.84
2022-10-21T15:44:30.992Z,100315.75
2022-10-21T15:47:01.163Z,100303.66
2022-10-21T15:49:34.941Z,100304.94
2022-10-21T15:52:04.508Z,100323.25
2022-10-21T15:54:34.546Z,100313.69
2022-10-21T15:57:03.638Z,100322.41
2022-10-21T15:59:34.985Z,100300.81
2022-10-21T16:04:31.438Z,100311.53
2022-10-21T16:07:03.269Z,100307.78
2022-10-21T16:09:32.749Z,100320.88
2022-10-21T16:12:03.139Z,100330.25
2022-10-21T16:14:32.651Z,100332.16
2022-10-21T16:17:00.948Z,100329.28
2022-10-21T16:19:29.873Z,100333.41
2022-10-21T16:21:58.291Z,100341.03
2022-10-21T16:24:26.380Z,100343.47
2022-10-21T16:26:54.654Z,100345.94
2022-10-21T16:29:24.778Z,100346.44
2022-10-21T16:31:55.314Z,100350.09
2022-10-21T16:34:23.799Z,100347.34
2022-10-21T16:36:51.844Z,100347.97
2022-10-21T16:39:22.084Z,100350.09
2022-10-21T16:41:50.252Z,100353.19
2022-10-21T16:44:18.744Z,100338.78
2022-10-21T16:46:51.937Z,100339.59
2022-10-21T16:49:24.031Z,100334.00
2022-10-21T16:51:53.531Z,100337.41
2022-10-21T16:54:23.135Z,100340.72
2022-10-21T16:57:08.419Z,100339.88
2022-10-21T16:59:37.462Z,100350.91
2022-10-21T17:02:15.544Z,100354.00
2022-10-21T17:04:45.779Z,100342.69
2022-10-21T17:07:14.275Z,100348.84
2022-10-21T17:09:42.479Z,100353.06
2022-10-21T17:12:12.699Z,100365.09
2022-10-21T17:14:41.206Z,100363.38
2022-10-21T17:17:09.294Z,100379.19
2022-10-21T17:19:37.361Z,100381.22
2022-10-21T17:22:07.436Z,100388.28
2022-10-21T17:24:35.400Z,100386.81
2022-10-21T17:27:03.797Z,100388.22
2022-10-21T17:29:31.873Z,100380.75
2022-10-21T17:31:59.726Z,100376.03
2022-10-21T17:34:30.267Z,100384.72
2022-10-21T17:37:01.303Z,100374.00
2022-10-21T17:39:33.014Z,100379.78
2022-10-21T17:42:01.001Z,100381.06
2022-10-21T17:44:28.959Z,100383.16
2022-10-21T17:46:57.175Z,100388.72
2022-10-21T17:49:28.609Z,100383.28
2022-10-21T17:51:56.672Z,100381.72
2022-10-21T17:54:28.488Z,100381.72
2022-10-21T17:56:59.442Z,100382.19
2022-10-21T17:59:27.465Z,100382.53
2022-10-21T18:01:55.440Z,100377.06
2022-10-21T18:04:23.645Z,100384.66
2022-10-21T18:06:54.699Z,100382.13
2022-10-21T18:09:24.041Z,100382.00
2022-10-21T18:11:52.793Z,100386.50
2022-10-21T18:14:22.621Z,100387.63
2022-10-21T18:16:50.497Z,100381.34
2022-10-21T18:19:18.767Z,100383.97
2022-10-21T18:21:46.658Z,100384.63
2022-10-21T18:24:14.664Z,100376.84
2022-10-21T18:26:42.578Z,100380.72
2022-10-21T18:29:10.672Z,100381.75
2022-10-21T18:31:40.849Z,100387.66
2022-10-21T18:34:09.306Z,100378.16
2022-10-21T18:36:37.633Z,100375.16
2022-10-21T18:39:06.018Z,100377.03
2022-10-21T18:41:34.255Z,100374.91
2022-10-21T18:44:08.059Z,100380.81
2022-10-21T18:46:37.520Z,100381.34
2022-10-21T18:49:09.178Z,100383.63
2022-10-21T18:51:37.255Z,100373.84
2022-10-21T18:54:05.630Z,100383.34
2022-10-21T18:56:33.760Z,100382.94
2022-10-21T18:59:01.708Z,100387.53
2022-10-21T19:01:29.825Z,100382.91
2022-10-21T19:03:57.813Z,100374.28
2022-10-21T19:06:37.062Z,100382.38
2022-10-21T19:09:08.391Z,100385.06
2022-10-21T19:11:36.453Z,100387.56
2022-10-21T19:14:07.242Z,100388.28
2022-10-21T19:16:37.949Z,100389.91
2022-10-21T19:19:05.912Z,100392.59
2022-10-21T19:21:35.332Z,100392.84
2022-10-21T19:24:04.008Z,100389.59
2022-10-21T19:26:33.926Z,100397.81
2022-10-21T19:29:03.080Z,100393.63
2022-10-21T19:31:34.669Z,100401.06
2022-10-21T19:34:06.729Z,100402.75
2022-10-21T19:36:36.049Z,100403.94
2022-10-21T19:39:04.159Z,100397.69
2022-10-21T19:41:32.306Z,100397.59
2022-10-21T19:44:00.240Z,100404.13
2022-10-21T19:46:30.940Z,100405.31
2022-10-21T19:49:01.307Z,100408.59
2022-10-21T19:51:29.600Z,100405.13
2022-10-21T19:53:59.273Z,100402.75
2022-10-21T19:56:31.962Z,100415.50
2022-10-21T19:59:02.636Z,100419.16
2022-10-21T20:04:01.260Z,100419.25
2022-10-21T20:06:32.007Z,100414.63
2022-10-21T20:09:02.930Z,100428.72
2022-10-21T20:11:31.534Z,100436.13
2022-10-21T20:14:00.216Z,100433.00
2022-10-21T20:16:30.364Z,100435.47
2022-10-21T20:19:00.484Z,100440.44
2022-10-21T20:21:29.101Z,100446.69
2022-10-21T20:23:58.003Z,100445.00
2022-10-21T20:26:28.727Z,100448.13
2022-10-21T20:28:57.477Z,100448.28
2022-10-21T20:31:25.496Z,100439.25
2022-10-21T20:33:53.414Z,100435.19
2022-10-21T20:36:23.794Z,100438.75
2022-10-21T20:38:53.999Z,100433.06
2022-10-21T20:41:24.085Z,100439.94
2022-10-21T20:43:54.396Z,100441.47
2022-10-21T20:46:24.229Z,100442.97
2022-10-21T20:48:54.117Z,100438.22
2022-10-21T20:51:24.962Z,100438.53
2022-10-21T20:53:55.196Z,100427.88
2022-10-21T20:56:23.707Z,100432.56
2022-10-21T20:58:53.173Z,100424.75
2022-10-21T21:01:25.346Z,100425.31
2022-10-21T21:03:55.149Z,100424.38
2022-10-21T21:06:23.082Z,100423.84
2022-10-21T21:09:08.561Z,100432.88
2022-10-21T21:11:39.444Z,100436.81
2022-10-21T21:14:08.737Z,100449.78
2022-10-21T21:16:36.625Z,100447.81
2022-10-21T21:19:06.799Z,100449.94
2022-10-21T21:21:36.469Z,100449.75
2022-10-21T21:24:05.031Z,100455.50
2022-10-21T21:26:34.673Z,100455.47
2022-10-21T21:29:03.118Z,100456.28
2022-10-21T21:31:32.713Z,100454.78
2022-10-21T21:34:04.218Z,100457.50
2022-10-21T21:36:32.158Z,100461.94
2022-10-21T21:39:00.158Z,100462.50
2022-10-21T21:41:28.184Z,100458.28
2022-10-21T21:43:56.870Z,100459.34
2022-10-21T21:46:25.953Z,100466.25
2022-10-21T21:48:59.465Z,100477.00
2022-10-21T21:51:31.317Z,100473.78
2022-10-21T21:54:00.290Z,100480.28
2022-10-21T21:56:28.920Z,100480.81
2022-10-21T21:58:58.059Z,100476.38
2022-10-21T22:01:28.935Z,100470.97
2022-10-21T22:03:59.045Z,100462.72
2022-10-21T22:06:29.101Z,100466.38
2022-10-21T22:08:57.445Z,100474.00
2022-10-21T22:11:28.097Z,100475.81
2022-10-21T22:13:56.348Z,100475.75
2022-10-21T22:16:27.435Z,100472.81
2022-10-21T22:19:01.730Z,100469.38
2022-10-21T22:21:33.321Z,100465.69
2022-10-21T22:24:01.264Z,100461.19
2022-10-21T22:26:29.975Z,100460.97
2022-10-21T22:28:58.219Z,100462.34
2022-10-21T22:31:29.453Z,100458.78
2022-10-21T22:34:00.383Z,100454.66
2022-10-21T22:36:28.649Z,100442.81
2022-10-21T22:38:58.207Z,100432.22
2022-10-21T22:41:26.248Z,100435.91
2022-10-21T22:43:54.159Z,100431.53
2022-10-21T22:46:33.545Z,100433.72
2022-10-21T22:49:03.322Z,100437.47
2022-10-21T22:51:31.263Z,100438.31
2022-10-21T22:54:01.276Z,100430.47
2022-10-21T22:56:29.485Z,100439.47
2022-10-21T22:58:57.899Z,100446.91
2022-10-21T23:01:29.056Z,100452.91
2022-10-21T23:03:58.032Z,100451.63
2022-10-21T23:06:25.940Z,100448.91
2022-10-21T23:08:53.952Z,100448.44
2022-10-21T23:11:23.310Z,100454.06
2022-10-21T23:14:02.441Z,100466.19
2022-10-21T23:16:31.990Z,100466.06
2022-10-21T23:19:00.131Z,100482.66
2022-10-21T23:21:28.778Z,100479.78
2022-10-21T23:23:56.821Z,100481.22
2022-10-21T23:26:26.293Z,100474.97
2022-10-21T23:28:54.268Z,100460.00
2022-10-21T23:31:22.602Z,100446.31
2022-10-21T23:33:50.638Z,100448.16
2022-10-21T23:36:18.665Z,100445.84
2022-10-21T23:38:46.582Z,100444.44
2022-10-21T23:41:14.749Z,100442.81
2022-10-21T23:43:44.087Z,100446.31
2022-10-21T23:46:11.982Z,100441.94
2022-10-21T23:48:39.930Z,100441.94
2022-10-21T23:51:07.942Z,100437.03
2022-10-21T23:53:35.892Z,100438.03
2022-10-21T23:56:03.814Z,100442.97
2022-10-21T23:58:31.827Z,100440.56
